Latest Weather Observations for Mawson*

IDT60801

Issued at 6:31 am EST Sunday 2 August 2015 (issued every 30 minutes, with the page automatically refreshed every 10 minutes)

About weather observations | Map of weather stations | Latest weather observations for ANT | Other Formats
Station Details ID: 300001 Name: MAWSON Lat: -67.60 Lon: 62.88 Height: 9.9 m
Data from the previous 72 hours. | See also: Recent months at Mawson*
Date/Time
EST
Temp
°C
App
Temp
°C
Dew
Point
Rel
Hum
%
Delta-T
°C
Wind Press
QNH
hPa
Press
MSL
hPa
Rain
since 9 am
mm
Dir
 
Spd
km/h
Gust
km/h
Spd
kts
Gust
kts
02/06:30am -13.0 -18.1 -15.4 82 - W 9 15 5 8 980.3 - -
02/06:00am -12.5 -19.1 -15.1 81 - SSW 17 20 9 11 980.0 - -
02/05:30am -12.3 -20.3 -15.5 77 - S 24 44 13 24 979.3 - -
02/05:20am -12.0 -21.5 -15.5 75 - SSW 32 50 17 27 979.1 - -
02/05:00am -12.9 -20.1 -15.6 80 - SW 20 28 11 15 978.6 - -
02/04:30am -13.3 -21.3 -15.9 81 - NW 24 30 13 16 978.2 - -
02/04:10am -12.1 -20.8 -15.6 75 - SSE 28 46 15 25 977.4 - -
02/04:00am -12.2 -20.5 -15.7 75 - SSE 26 39 14 21 977.2 977.3 -
02/03:55am -12.3 -18.6 -15.8 75 - SSW 15 26 8 14 977.2 - -
02/03:30am -13.1 -24.3 -15.5 82 - SE 41 65 22 35 977.0 - -
02/03:21am -12.8 -24.5 -14.9 84 - SE 44 65 24 35 976.5 - -
02/03:12am -13.3 -23.7 -15.4 84 - SE 37 43 20 23 976.6 - -
02/03:00am -13.6 -27.6 -15.4 86 - SE 56 69 30 37 976.4 - -
02/02:39am -13.1 -26.3 -14.8 87 - SE 52 70 28 38 976.0 - -
02/02:30am -13.7 -27.9 -15.1 89 - SE 57 69 31 37 975.6 - -
02/02:00am -12.8 -25.6 -14.1 90 - SE 50 69 27 37 975.0 - -
02/01:39am -13.8 -26.7 -15.2 89 - SE 50 69 27 37 975.5 - -
02/01:30am -13.6 -27.2 -14.9 90 - SE 54 67 29 36 975.2 - -
02/01:23am -13.7 -25.8 -15.0 90 - SE 46 54 25 29 975.2 - -
02/01:05am -14.6 -30.7 -16.0 89 - SE 67 87 36 47 975.3 - -
02/01:00am -14.7 -31.2 -16.0 90 - SE 69 83 37 45 974.7 974.8 -
02/12:30am -13.6 -28.2 -14.9 90 - SE 59 72 32 39 974.7 - -
02/12:06am -14.4 -30.2 -15.7 90 - SE 65 83 35 45 974.6 - -
02/12:00am -14.0 -29.7 -15.3 90 - SE 65 76 35 41 974.7 - -
 
Date/Time
EST
Temp
°C
App
Temp
°C
Dew
Point
Rel
Hum
%
Delta-T
°C
Wind Press
QNH
hPa
Press
MSL
hPa
Rain
since 9 am
mm
Dir
 
Spd
km/h
Gust
km/h
Spd
kts
Gust
kts
01/11:45pm -13.8 -29.9 -15.1 90 - SE 67 96 36 52 974.8 - -
01/11:43pm -14.1 -28.1 -15.4 90 - ESE 56 80 30 43 974.4 - -
01/11:42pm -14.3 -27.6 -15.6 90 - E 52 67 28 36 974.8 - -
01/11:30pm -13.9 -28.9 -15.2 90 - SE 61 80 33 43 974.4 - -
01/11:00pm -14.3 -31.0 -15.6 90 - SE 70 89 38 48 973.8 - -
01/10:30pm -14.2 -31.3 -15.5 90 - SE 72 89 39 48 973.4 - -
01/10:08pm -14.7 -31.8 -16.0 90 - SE 72 91 39 49 973.8 - -
01/10:00pm -14.7 -32.6 -16.0 90 - SE 76 93 41 50 973.2 973.3 -
01/09:30pm -14.7 -31.8 -16.0 90 - SE 72 96 39 52 973.3 - -
01/09:00pm -14.8 -31.9 -16.1 90 - SE 72 98 39 53 972.5 - -
01/08:34pm -14.6 -31.3 -15.9 90 - SE 70 89 38 48 973.1 - -
01/08:30pm -14.6 -31.7 -15.9 90 - SE 72 89 39 48 973.1 - -
01/08:01pm -15.1 -32.6 -16.4 90 - SE 74 95 40 51 973.3 - -
01/08:00pm -15.0 -32.5 -16.3 90 - SE 74 91 40 49 973.2 - -
01/07:30pm -14.8 -31.5 -16.1 90 - SE 70 91 38 49 973.4 - -
01/07:04pm -14.9 -30.7 -16.2 90 - SE 65 83 35 45 973.6 - -
01/07:00pm -14.8 -30.6 -16.1 90 - SE 65 80 35 43 973.9 974.0 -
01/06:30pm -15.0 -31.7 -16.3 90 - SE 70 89 38 48 973.5 - -
01/06:14pm -15.0 -31.5 -16.3 90 - SE 69 87 37 47 973.7 - -
01/06:00pm -15.1 -32.6 -16.4 90 - SE 74 91 40 49 973.6 - -
01/05:30pm -15.2 -32.3 -16.5 90 - SE 72 89 39 48 974.3 - -
01/05:05pm -15.3 -31.9 -16.6 90 - SE 69 89 37 48 974.4 - -
01/05:00pm -15.3 -31.5 -16.6 90 - SE 67 83 36 45 974.6 - -
01/04:30pm -14.9 -30.7 -16.2 90 - ESE 65 93 35 50 974.1 - -
01/04:00pm -14.7 -30.1 -16.0 90 - ESE 63 82 34 44 974.6 974.7 -
01/03:31pm -14.6 -30.4 -15.9 90 - ESE 65 83 35 45 974.6 - -
01/03:30pm -14.6 -30.7 -15.9 90 - ESE 67 83 36 45 974.5 - -
01/03:02pm -14.3 -29.3 -15.4 91 - ESE 61 80 33 43 975.2 - -
01/03:00pm -14.2 -29.2 -15.3 91 - ESE 61 78 33 42 975.4 - -
01/02:30pm -14.4 -29.4 -15.5 91 - ESE 61 85 33 46 975.9 - -
01/02:01pm -14.3 -30.4 -15.4 91 - SE 67 85 36 46 976.3 - -
01/02:00pm -14.3 -30.8 -15.4 91 - SE 69 85 37 46 976.2 - -
01/01:30pm -14.0 -29.0 -15.1 91 - ESE 61 80 33 43 976.3 - -
01/01:10pm -13.2 -27.7 -14.2 92 - ESE 59 80 32 43 975.9 - -
01/01:00pm -13.1 -28.8 -14.1 92 - ESE 65 82 35 44 975.6 975.7 -
01/12:32pm -14.1 -32.3 -15.2 91 - SE 78 96 42 52 975.4 - -
01/12:30pm -14.1 -32.7 -15.2 91 - SE 80 96 43 52 975.3 - -
01/12:01pm -13.6 -31.0 -14.7 91 - SE 74 93 40 50 975.9 - -
01/12:00pm -13.8 -31.6 -14.9 91 - SE 76 93 41 50 975.9 - -
01/11:30am -13.6 -32.2 -14.7 91 - SE 80 102 43 55 975.4 - -
01/11:00am -13.4 -31.9 -14.5 91 - SE 80 98 43 53 976.1 - -
01/10:33am -13.3 -32.2 -14.4 91 - SE 82 104 44 56 976.1 - -
01/10:30am -13.3 -32.4 -14.4 91 - SE 83 98 45 53 976.0 - -
01/10:12am -13.0 -31.9 -14.0 92 - SE 82 100 44 54 976.4 - -
01/10:00am -12.8 -31.9 -13.8 92 - SE 83 98 45 53 976.7 976.8 -
01/09:30am -12.9 -32.4 -13.9 92 - SE 85 104 46 56 976.4 - -
01/09:02am -13.1 -33.7 -14.3 91 - SE 91 113 49 61 976.1 - -
01/09:00am -13.0 -33.6 -14.0 92 - SE 91 106 49 57 976.1 - -
01/08:30am -13.0 -33.6 -14.2 91 - SE 91 106 49 57 976.8 - -
01/08:00am -12.9 -32.7 -14.1 91 - SE 87 106 47 57 977.9 - -
01/07:30am -12.9 -32.0 -14.1 91 - ESE 83 107 45 58 977.4 - -
01/07:00am -12.8 -29.8 -14.0 91 - ESE 72 95 39 51 979.2 979.4 -
01/06:51am -12.9 -31.0 -14.1 91 - ESE 78 96 42 52 979.6 - -
01/06:50am -12.9 -31.4 -14.1 91 - ESE 80 96 43 52 979.5 - -
01/06:31am -12.9 -27.4 -14.2 90 - ESE 59 80 32 43 980.6 - -
01/06:30am -12.8 -26.9 -14.1 90 - ESE 57 72 31 39 980.6 - -
01/06:00am -12.7 -26.3 -14.0 90 - ESE 54 72 29 39 982.6 - -
01/05:42am -13.2 -28.9 -14.5 90 - ESE 65 83 35 45 983.1 - -
01/05:30am -13.3 -29.9 -14.6 90 - SE 70 83 38 45 982.9 - -
01/05:00am -13.9 -31.7 -15.2 90 - SE 76 87 41 47 983.8 - -
01/04:30am -15.6 -34.6 -17.1 88 - ESE 82 102 44 55 984.0 - -
01/04:11am -16.3 -35.6 -17.9 87 - ESE 83 104 45 56 984.3 - -
01/04:00am -15.9 -35.2 -17.4 88 - SE 83 95 45 51 984.8 985.0 -
01/03:30am -16.5 -35.6 -18.1 87 - ESE 82 96 44 52 985.8 - -
01/03:16am -16.6 -34.6 -18.2 87 - ESE 76 89 41 48 986.7 - -
01/03:10am -16.6 -30.8 -18.2 87 - SE 56 82 30 44 987.5 - -
01/03:00am -16.4 -28.7 -18.5 84 - SE 46 65 25 35 989.6 - -
01/02:58am -16.3 -27.6 -18.4 84 - SSE 41 63 22 34 989.7 - -
01/02:57am -16.4 -27.0 -18.5 84 - SSE 37 54 20 29 990.0 - -
01/02:52am -16.5 -25.7 -19.0 81 - NNW 30 46 16 25 989.8 - -
01/02:30am -15.8 -29.6 -19.2 75 - N 54 72 29 39 990.9 - -
01/02:16am -15.5 -28.9 -18.3 79 - NNE 52 70 28 38 990.7 - -
01/02:14am -15.5 -28.9 -18.9 75 - NNE 52 69 28 37 990.7 - -
01/02:00am -13.7 -25.5 -16.7 78 - N 44 67 24 36 991.2 - -
01/01:58am -14.5 -26.3 -16.6 84 - N 44 67 24 36 991.4 - -
01/01:56am -16.0 -27.7 -18.5 81 - N 43 54 23 29 991.5 - -
01/01:30am -17.2 -26.9 -20.4 76 - NNE 32 41 17 22 992.4 - -
01/01:00am -16.9 -23.7 -20.6 73 - NE 17 28 9 15 993.5 993.7 -
01/12:54am -14.4 -21.1 -18.2 73 - ESE 17 28 9 15 993.4 - -
01/12:42am -13.6 -25.4 -16.3 80 - SE 44 63 24 34 993.6 - -
01/12:39am -13.1 -24.6 -15.2 84 - SE 43 56 23 30 993.8 - -
01/12:36am -18.0 -29.0 -20.6 80 - E 39 54 21 29 994.3 - -
01/12:30am -20.9 -28.2 -23.6 79 - NNW 19 26 10 14 994.4 - -
01/12:00am -21.4 -27.2 -23.9 80 - NNW 11 17 6 9 995.3 - -
 
Date/Time
EST
Temp
°C
App
Temp
°C
Dew
Point
Rel
Hum
%
Delta-T
°C
Wind Press
QNH
hPa
Press
MSL
hPa
Rain
since 9 am
mm
Dir
 
Spd
km/h
Gust
km/h
Spd
kts
Gust
kts
31/11:30pm -21.7 -27.1 -24.2 80 - NNW 9 15 5 8 995.5 - -
31/11:00pm -21.8 -28.7 -24.3 80 - NNW 17 22 9 12 996.0 - -
31/10:30pm -22.1 -28.7 -24.6 80 - NNW 15 19 8 10 996.5 - -
31/10:00pm -23.2 -29.0 -25.7 80 - NNW 11 13 6 7 996.2 996.4 -
31/09:30pm -23.3 -29.1 -25.8 80 - NNW 11 15 6 8 996.3 - -
31/09:00pm -23.0 -28.1 -25.5 80 - NNW 7 11 4 6 997.3 - -
31/08:30pm -23.5 -29.0 -26.0 80 - NNW 9 11 5 6 998.1 - -
31/08:00pm -23.9 -29.4 -26.5 79 - NNW 9 13 5 7 998.6 - -
31/07:30pm -24.4 -28.2 -27.0 79 - CALM 0 0 0 0 999.0 - -
31/07:00pm -24.8 -29.9 -27.4 79 - NNW 7 13 4 7 999.6 999.8 -
31/06:30pm -25.1 -30.2 -27.7 79 - NNW 7 9 4 5 999.8 - -
31/06:00pm -24.5 -29.0 -27.1 79 - NNW 4 7 2 4 999.8 - -
31/05:30pm -25.1 -29.3 -27.7 79 - NNW 2 6 1 3 1001.1 - -
31/05:00pm -25.4 -30.3 -28.1 78 - NNW 6 9 3 5 1001.2 - -
31/04:30pm -25.0 -29.9 -27.7 78 - NNW 6 11 3 6 1000.9 - -
31/04:00pm -25.1 -30.2 -27.9 77 - NNW 7 11 4 6 1001.2 1001.4 -
31/03:30pm -24.4 -28.2 -27.1 78 - CALM 0 2 0 1 1001.6 - -
31/03:00pm -25.0 -29.6 -27.7 78 - NNW 4 7 2 4 1001.5 - -
31/02:30pm -23.1 -30.6 -25.7 79 - NNW 20 26 11 14 1001.0 - -
31/02:00pm -22.8 -31.1 -25.4 79 - NNW 24 30 13 16 1000.3 - -
31/01:30pm -21.2 -27.4 -23.7 80 - NNE 13 17 7 9 1000.4 - -
31/01:00pm -20.9 -26.3 -23.4 80 - WSW 9 24 5 13 1000.0 1000.2 -
31/12:30pm -20.9 -25.9 -23.3 81 - S 7 9 4 5 1000.5 - -
31/12:00pm -21.0 -27.5 -23.5 80 - SSW 15 17 8 9 1001.0 - -
31/11:30am -22.0 -31.8 -24.5 80 - SSE 32 35 17 19 1001.3 - -
31/11:00am -22.3 -31.3 -24.8 80 - SE 28 30 15 16 1001.7 - -
31/10:59am -22.1 -31.1 -24.6 80 - SE 28 30 15 16 1001.7 - -
31/10:30am -21.7 -27.1 -23.9 82 - E 9 11 5 6 1002.2 - -
31/10:00am -21.4 -26.2 -23.6 82 - E 6 9 3 5 1002.1 1002.3 -
31/09:30am -19.6 -25.3 -21.7 83 - E 11 24 6 13 1001.8 - -
31/09:00am -18.8 -23.7 -20.7 85 - N 7 9 4 5 1002.1 - -
31/08:30am -18.2 -23.1 -20.1 85 - N 7 11 4 6 1002.3 - -
31/08:00am -18.1 -22.8 -20.0 85 - N 6 7 3 4 1001.8 - -
31/07:30am -18.2 -23.1 -20.1 85 - N 7 11 4 6 1001.8 - -
31/07:00am -18.7 -23.4 -20.6 85 - N 6 7 3 4 1001.6 1001.8 -
31/06:30am -19.0 -24.3 -20.9 85 - N 9 11 5 6 1001.6 - -
31/06:00am -18.8 -24.1 -20.7 85 - N 9 13 5 7 1001.4 - -
31/05:30am -18.4 -24.1 -20.3 85 - N 11 13 6 7 1001.2 - -
31/05:00am -18.4 -23.7 -20.3 85 - N 9 13 5 7 1001.4 - -
31/04:30am -18.5 -24.6 -20.4 85 - N 13 17 7 9 1001.4 - -
31/04:00am -18.5 -24.6 -20.4 85 - N 13 20 7 11 1001.6 1001.8 -
31/03:30am -18.7 -25.2 -20.6 85 - N 15 19 8 10 1001.5 - -
31/03:00am -18.8 -24.9 -20.7 85 - N 13 15 7 8 1000.9 - -
31/02:30am -18.7 -24.0 -20.6 85 - N 9 15 5 8 1000.8 - -
31/02:00am -18.4 -24.1 -20.1 86 - N 11 13 6 7 1001.0 - -
31/01:30am -18.1 -23.8 -19.9 86 - N 11 13 6 7 1001.0 - -
31/01:00am -17.9 -23.6 -19.7 86 - N 11 11 6 6 1000.8 1001.0 -
31/12:30am -17.7 -23.3 -19.3 87 - N 11 15 6 8 1000.6 - -
31/12:00am -17.4 -23.4 -19.0 87 - NNE 13 17 7 9 1000.4 - -
 
Date/Time
EST
Temp
°C
App
Temp
°C
Dew
Point
Rel
Hum
%
Delta-T
°C
Wind Press
QNH
hPa
Press
MSL
hPa
Rain
since 9 am
mm
Dir
 
Spd
km/h
Gust
km/h
Spd
kts
Gust
kts
30/11:30pm -17.2 -23.6 -18.8 87 - NE 15 19 8 10 1000.3 - -
30/11:00pm -17.3 -24.6 -18.9 87 - NNE 20 26 11 14 999.8 - -
30/10:30pm -17.0 -24.3 -18.6 87 - N 20 22 11 12 999.3 - -
30/10:00pm -15.7 -23.0 -17.2 88 - SE 20 24 11 13 998.2 998.4 -
30/09:30pm -15.9 -24.3 -17.4 88 - E 26 35 14 19 998.0 - -
30/09:00pm -16.0 -24.8 -17.5 88 - ESE 28 39 15 21 997.3 - -
30/08:30pm -16.1 -26.2 -17.6 88 - ESE 35 46 19 25 996.8 - -
30/08:00pm -17.0 -27.6 -18.6 87 - ESE 37 48 20 26 996.4 - -
30/07:30pm -17.1 -28.0 -18.7 87 - ESE 39 52 21 28 995.8 - -
30/07:00pm -17.1 -29.0 -18.7 87 - E 44 57 24 31 995.7 995.9 -
30/06:30pm -17.1 -29.8 -18.7 87 - ESE 48 57 26 31 995.0 - -
30/06:00pm -17.0 -31.7 -18.6 87 - E 59 69 32 37 994.6 - -
30/05:33pm -16.9 -29.9 -18.5 87 - E 50 69 27 37 994.5 - -
30/05:30pm -16.8 -29.4 -18.3 88 - E 48 61 26 33 994.6 - -
30/05:00pm -16.9 -29.9 -18.4 88 - E 50 65 27 35 993.9 - -
30/04:36pm -16.6 -28.3 -18.1 88 - E 43 63 23 34 993.7 - -
30/04:30pm -16.8 -28.7 -18.3 88 - ENE 44 57 24 31 993.7 - -
30/04:07pm -16.1 -27.8 -17.6 88 - ENE 43 61 23 33 993.4 - -
30/04:00pm -16.0 -28.2 -17.5 88 - ENE 46 61 25 33 993.0 993.2 -
30/03:35pm -15.6 -29.9 -17.0 89 - E 57 76 31 41 992.5 - -
30/03:30pm -15.6 -30.3 -17.0 89 - E 59 76 32 41 992.4 - -
30/03:05pm -16.0 -31.5 -17.5 88 - E 63 82 34 44 991.5 - -
30/03:00pm -16.0 -32.2 -17.5 88 - E 67 83 36 45 991.5 - -
30/02:30pm -15.8 -31.2 -17.2 89 - E 63 82 34 44 991.4 - -
30/02:04pm -15.5 -31.7 -16.9 89 - E 67 95 36 51 990.4 - -
30/02:00pm -15.4 -31.6 -16.8 89 - E 67 82 36 44 990.7 - -
30/01:54pm -15.3 -32.4 -16.7 89 - E 72 78 39 42 990.0 - -
30/01:44pm -15.0 -28.3 -16.3 90 - E 52 72 28 39 990.4 - -
30/01:42pm -14.7 -29.7 -16.0 90 - ESE 61 72 33 39 989.5 - -
30/01:40pm -15.0 -29.3 -16.3 90 - ENE 57 76 31 41 990.0 - -
30/01:37pm -14.7 -35.4 -16.0 90 - E 91 98 49 53 989.0 - -
30/01:35pm -14.5 -29.9 -15.8 90 - E 63 96 34 52 989.2 - -
30/01:34pm -14.6 -28.8 -15.9 90 - E 57 78 31 42 989.5 - -
30/01:30pm -14.7 -33.7 -16.0 90 - ESE 82 106 44 57 988.7 - -
30/01:00pm -14.8 -33.4 -16.1 90 - E 80 100 43 54 988.2 988.4 -
30/12:59pm -14.7 -32.6 -16.0 90 - E 76 100 41 54 988.3 - -
30/12:57pm -14.6 -31.7 -15.9 90 - E 72 82 39 44 988.7 - -
30/12:52pm -14.9 -36.4 -16.2 90 - E 95 113 51 61 988.0 - -
30/12:50pm -14.9 -37.7 -16.2 90 - E 102 113 55 61 987.4 - -
30/12:43pm -14.5 -33.5 -15.8 90 - ESE 82 100 44 54 987.6 - -
30/12:30pm -14.5 -35.2 -15.8 90 - E 91 106 49 57 987.5 - -
30/12:01pm -14.7 -35.4 -16.0 90 - E 91 109 49 59 988.1 - -
30/12:00pm -14.6 -35.7 -15.9 90 - E 93 109 50 59 988.0 - -
30/11:30am -14.9 -36.0 -16.3 89 - ESE 93 111 50 60 987.3 - -
30/11:00am -15.1 -36.2 -16.5 89 - ESE 93 113 50 61 987.2 - -
30/10:34am -15.2 -36.7 -16.6 89 - ESE 95 120 51 65 987.4 - -

Other Formats:

Comma delimited format used in spreadsheet applications
http://www.bom.gov.au/fwo/IDT60803/IDT60803.89564.axf

JavaScript Object Notation format (JSON) in row-major order
http://www.bom.gov.au/fwo/IDT60803/IDT60803.89564.json